Friday, July 20, 2018, 8:54 AM GMT
Back to Local

CYZX, Greenwood, N. S.

Location: , , Canada Lat: 44.983
Local Time: 8:54 AM GMT ( 8:54 GMT) Lon: -64.917
Time Zone: GMT Elev: 91 ft

Show me the last for .
Show Decoded

2018-07-20 08:00 METAR CYZX 200800Z 00000KT 15SM SKC 11/09 A3015 RMK SLP210 =
2018-07-20 07:00 METAR CYZX 200700Z 00000KT 15SM SKC 12/10 A3014 RMK SLP207 =
2018-07-20 06:00 METAR CYZX 200600Z CCA 00000KT 15SM SKC 13/09 A3013 RMK SLP205 =
2018-07-20 05:00 METAR CYZX 200500Z 00000KT 15SM SKC 13/11 A3012 RMK SLP201 =
2018-07-20 04:00 METAR CYZX 200400Z 00000KT 15SM SKC 15/11 A3012 RMK SLP200 =
2018-07-20 03:00 METAR CYZX 200300Z 18003KT 15SM SKC 16/11 A3011 RMK SLP198 =
2018-07-20 02:00 METAR CYZX 200200Z 00000KT 15SM SKC 17/12 A3010 RMK SLP194 =
2018-07-20 01:00 METAR CYZX 200100Z 00000KT 15SM FEW250 19/14 A3008 RMK CI1 SLP186 =
2018-07-20 00:00 METAR CYZX 200000Z 33002KT 15SM FEW050 FEW250 21/17 A3005 RMK CU1CI1 SLP175 =
2018-07-19 23:00 METAR CYZX 192300Z 31002KT 15SM FEW050 FEW250 23/17 A3002 RMK CU1CI1 SLP168 =
2018-07-19 22:00 METAR CYZX 192200Z 32006KT 15SM FEW055 FEW250 24/18 A3002 RMK CU1CI1 SLP167 =
2018-07-19 21:00 METAR CYZX 192100Z 32006KT 15SM FEW055 FEW250 25/19 A3002 RMK CU1CI1 SLP165 =
2018-07-19 20:00 METAR CYZX 192000Z 34007KT 15SM FEW055 FEW250 25/16 A3001 RMK CU1CI1 SLP163 =
2018-07-19 19:00 METAR CYZX 191900Z 34007KT 15SM FEW050 24/15 A3001 RMK CU1 SLP162 =
2018-07-19 18:00 METAR CYZX 191800Z 34007KT 15SM FEW050 FEW250 25/14 A3000 RMK CU1CI1 CI TR
                 SLP161 =
2018-07-19 17:00 METAR CYZX 191700Z 34007KT 15SM FEW050 FEW250 24/12 A3000 RMK CU1CI1 CU TR
                 SLP161 =
2018-07-19 16:00 METAR CYZX 191600Z 34008G16KT 15SM FEW050 FEW250 24/10 A3000 RMK CU1CI1 CU TR
                 SLP160 =
2018-07-19 15:00 METAR CYZX 191500Z 34006KT 15SM FEW250 24/11 A3000 RMK CI1 SLP157 =
2018-07-19 14:00 METAR CYZX 191400Z 34006KT 15SM FEW250 23/11 A2998 RMK CI1 SLP152 =
2018-07-19 13:00 METAR CYZX 191300Z 08002KT 15SM FEW030 FEW250 21/11 A2998 RMK SC1CI1 SC TR
                 SLP152 =
2018-07-19 12:00 METAR CYZX 191200Z 00000KT 15SM FEW030 FEW250 18/11 A2998 RMK SC1CI1 SC TR
                 SLP152 =
2018-07-19 11:00 METAR CYZX 191100Z 22003KT 15SM FEW030 FEW250 16/11 A2995 RMK SC1CI1 CI TR
                 SLP144 =
2018-07-19 10:00 METAR CYZX 191000Z 22003KT 15SM FEW030 FEW250 14/11 A2995 RMK SC2CI1 SLP144 =
2018-07-19 09:00 METAR CYZX 190900Z 27005KT 15SM FEW060 FEW100 13/11 A2993 RMK SC1AC1 SLP136 =

Support USWX by starting your Amazon purchase here.